sensor_id;sensor_type;location;lat;lon;timestamp;P1;durP1;ratioP1;P2;durP2;ratioP2
55114;SDS011;41010;53.252;5.786;2023-06-04T00:02:23;3.58;;;1.27;;
55114;SDS011;41010;53.252;5.786;2023-06-04T00:04:50;3.28;;;1.30;;
55114;SDS011;41010;53.252;5.786;2023-06-04T00:07:17;2.17;;;1.05;;
55114;SDS011;41010;53.252;5.786;2023-06-04T00:09:45;3.45;;;0.90;;
55114;SDS011;41010;53.252;5.786;2023-06-04T00:12:12;3.15;;;1.40;;
55114;SDS011;41010;53.252;5.786;2023-06-04T00:14:39;4.07;;;1.15;;
55114;SDS011;41010;53.252;5.786;2023-06-04T00:17:09;3.20;;;1.30;;
55114;SDS011;41010;53.252;5.786;2023-06-04T00:19:37;4.32;;;1.40;;
55114;SDS011;41010;53.252;5.786;2023-06-04T00:22:05;3.60;;;1.20;;
55114;SDS011;41010;53.252;5.786;2023-06-04T00:24:32;1.38;;;1.00;;
55114;SDS011;41010;53.252;5.786;2023-06-04T00:26:59;3.63;;;1.35;;
55114;SDS011;41010;53.252;5.786;2023-06-04T00:29:27;2.40;;;1.25;;
55114;SDS011;41010;53.252;5.786;2023-06-04T00:31:54;3.67;;;1.00;;
55114;SDS011;41010;53.252;5.786;2023-06-04T00:34:22;5.53;;;1.27;;
55114;SDS011;41010;53.252;5.786;2023-06-04T00:36:50;3.10;;;1.05;;
55114;SDS011;41010;53.252;5.786;2023-06-04T00:39:17;6.38;;;1.48;;
55114;SDS011;41010;53.252;5.786;2023-06-04T00:41:44;2.78;;;0.88;;
55114;SDS011;41010;53.252;5.786;2023-06-04T00:44:11;5.25;;;1.10;;
55114;SDS011;41010;53.252;5.786;2023-06-04T00:46:39;2.63;;;1.08;;
55114;SDS011;41010;53.252;5.786;2023-06-04T00:49:06;3.55;;;1.13;;
55114;SDS011;41010;53.252;5.786;2023-06-04T00:51:34;3.20;;;1.15;;
55114;SDS011;41010;53.252;5.786;2023-06-04T00:54:03;4.00;;;1.20;;
55114;SDS011;41010;53.252;5.786;2023-06-04T00:56:34;2.30;;;0.95;;
55114;SDS011;41010;53.252;5.786;2023-06-04T00:59:02;4.60;;;1.20;;
55114;SDS011;41010;53.252;5.786;2023-06-04T01:01:31;4.13;;;0.90;;
55114;SDS011;41010;53.252;5.786;2023-06-04T01:04:00;3.35;;;0.93;;
55114;SDS011;41010;53.252;5.786;2023-06-04T01:06:31;4.18;;;1.00;;
55114;SDS011;41010;53.252;5.786;2023-06-04T01:09:02;5.82;;;1.13;;
55114;SDS011;41010;53.252;5.786;2023-06-04T01:11:33;2.88;;;1.00;;
55114;SDS011;41010;53.252;5.786;2023-06-04T01:14:00;4.20;;;1.25;;
55114;SDS011;41010;53.252;5.786;2023-06-04T01:16:28;2.90;;;0.93;;
55114;SDS011;41010;53.252;5.786;2023-06-04T01:18:57;4.30;;;1.00;;
55114;SDS011;41010;53.252;5.786;2023-06-04T01:21:26;4.82;;;1.30;;
55114;SDS011;41010;53.252;5.786;2023-06-04T01:23:56;4.45;;;0.90;;
55114;SDS011;41010;53.252;5.786;2023-06-04T01:26:29;6.90;;;1.15;;
55114;SDS011;41010;53.252;5.786;2023-06-04T01:28:57;3.70;;;1.05;;
55114;SDS011;41010;53.252;5.786;2023-06-04T01:31:25;2.50;;;1.13;;
55114;SDS011;41010;53.252;5.786;2023-06-04T01:33:52;4.90;;;1.00;;
55114;SDS011;41010;53.252;5.786;2023-06-04T01:36:20;4.30;;;1.13;;
55114;SDS011;41010;53.252;5.786;2023-06-04T01:38:48;4.35;;;1.20;;
55114;SDS011;41010;53.252;5.786;2023-06-04T01:41:15;2.40;;;1.00;;
55114;SDS011;41010;53.252;5.786;2023-06-04T01:43:44;2.92;;;0.80;;
55114;SDS011;41010;53.252;5.786;2023-06-04T01:46:11;7.18;;;1.25;;
55114;SDS011;41010;53.252;5.786;2023-06-04T01:48:38;2.58;;;1.20;;
55114;SDS011;41010;53.252;5.786;2023-06-04T01:51:06;2.75;;;0.90;;
55114;SDS011;41010;53.252;5.786;2023-06-04T01:53:33;6.95;;;1.55;;
55114;SDS011;41010;53.252;5.786;2023-06-04T01:56:01;2.75;;;1.20;;
55114;SDS011;41010;53.252;5.786;2023-06-04T01:58:28;3.28;;;1.13;;
55114;SDS011;41010;53.252;5.786;2023-06-04T02:00:58;6.18;;;1.40;;
55114;SDS011;41010;53.252;5.786;2023-06-04T02:03:28;2.42;;;1.30;;
55114;SDS011;41010;53.252;5.786;2023-06-04T02:06:02;6.55;;;1.55;;
55114;SDS011;41010;53.252;5.786;2023-06-04T02:08:29;4.90;;;2.15;;
55114;SDS011;41010;53.252;5.786;2023-06-04T02:10:58;2.55;;;1.38;;
55114;SDS011;41010;53.252;5.786;2023-06-04T02:13:25;5.22;;;1.60;;
55114;SDS011;41010;53.252;5.786;2023-06-04T02:15:53;4.43;;;1.95;;
55114;SDS011;41010;53.252;5.786;2023-06-04T02:18:21;5.72;;;1.67;;
55114;SDS011;41010;53.252;5.786;2023-06-04T02:20:50;3.28;;;1.70;;
55114;SDS011;41010;53.252;5.786;2023-06-04T02:23:18;3.90;;;1.70;;
55114;SDS011;41010;53.252;5.786;2023-06-04T02:25:45;5.07;;;1.55;;
55114;SDS011;41010;53.252;5.786;2023-06-04T02:28:14;2.20;;;1.50;;
55114;SDS011;41010;53.252;5.786;2023-06-04T02:30:43;3.90;;;1.60;;
55114;SDS011;41010;53.252;5.786;2023-06-04T02:33:11;6.82;;;1.77;;
55114;SDS011;41010;53.252;5.786;2023-06-04T02:35:40;5.38;;;1.73;;
55114;SDS011;41010;53.252;5.786;2023-06-04T02:38:07;6.63;;;1.90;;
55114;SDS011;41010;53.252;5.786;2023-06-04T02:40:35;4.40;;;1.70;;
55114;SDS011;41010;53.252;5.786;2023-06-04T02:43:02;4.10;;;1.58;;
55114;SDS011;41010;53.252;5.786;2023-06-04T02:45:29;4.13;;;1.45;;
55114;SDS011;41010;53.252;5.786;2023-06-04T02:47:57;4.63;;;1.45;;
55114;SDS011;41010;53.252;5.786;2023-06-04T02:50:24;2.03;;;1.40;;
55114;SDS011;41010;53.252;5.786;2023-06-04T02:52:53;4.82;;;1.58;;
55114;SDS011;41010;53.252;5.786;2023-06-04T02:55:20;2.88;;;1.55;;
55114;SDS011;41010;53.252;5.786;2023-06-04T02:57:47;4.20;;;1.77;;
55114;SDS011;41010;53.252;5.786;2023-06-04T03:00:17;4.47;;;1.50;;
55114;SDS011;41010;53.252;5.786;2023-06-04T03:02:44;3.78;;;1.48;;
55114;SDS011;41010;53.252;5.786;2023-06-04T03:05:12;2.42;;;1.27;;
55114;SDS011;41010;53.252;5.786;2023-06-04T03:07:40;3.80;;;1.73;;
55114;SDS011;41010;53.252;5.786;2023-06-04T03:10:10;2.13;;;1.45;;
55114;SDS011;41010;53.252;5.786;2023-06-04T03:12:37;3.83;;;1.90;;
55114;SDS011;41010;53.252;5.786;2023-06-04T03:15:05;4.30;;;1.75;;
55114;SDS011;41010;53.252;5.786;2023-06-04T03:17:32;2.72;;;1.80;;
55114;SDS011;41010;53.252;5.786;2023-06-04T03:19:59;6.28;;;2.10;;
55114;SDS011;41010;53.252;5.786;2023-06-04T03:22:29;4.32;;;2.10;;
55114;SDS011;41010;53.252;5.786;2023-06-04T03:24:56;5.35;;;2.20;;
55114;SDS011;41010;53.252;5.786;2023-06-04T03:27:25;5.25;;;1.85;;
55114;SDS011;41010;53.252;5.786;2023-06-04T03:29:52;4.32;;;2.33;;
55114;SDS011;41010;53.252;5.786;2023-06-04T03:32:19;2.85;;;2.00;;
55114;SDS011;41010;53.252;5.786;2023-06-04T03:34:46;3.55;;;1.92;;
55114;SDS011;41010;53.252;5.786;2023-06-04T03:37:13;3.03;;;2.00;;
55114;SDS011;41010;53.252;5.786;2023-06-04T03:39:41;3.50;;;1.77;;
55114;SDS011;41010;53.252;5.786;2023-06-04T03:42:08;3.55;;;1.80;;
55114;SDS011;41010;53.252;5.786;2023-06-04T03:44:37;3.47;;;2.00;;
55114;SDS011;41010;53.252;5.786;2023-06-04T03:47:04;6.05;;;2.10;;
55114;SDS011;41010;53.252;5.786;2023-06-04T03:49:31;3.88;;;2.20;;
55114;SDS011;41010;53.252;5.786;2023-06-04T03:51:58;4.35;;;2.10;;
55114;SDS011;41010;53.252;5.786;2023-06-04T03:54:25;3.65;;;2.13;;
55114;SDS011;41010;53.252;5.786;2023-06-04T03:56:53;7.50;;;2.30;;
55114;SDS011;41010;53.252;5.786;2023-06-04T03:59:20;3.95;;;2.05;;
55114;SDS011;41010;53.252;5.786;2023-06-04T04:01:49;3.80;;;2.35;;
55114;SDS011;41010;53.252;5.786;2023-06-04T04:04:16;7.60;;;2.42;;
55114;SDS011;41010;53.252;5.786;2023-06-04T04:06:43;3.13;;;2.05;;
55114;SDS011;41010;53.252;5.786;2023-06-04T04:09:10;5.43;;;2.28;;
55114;SDS011;41010;53.252;5.786;2023-06-04T04:11:38;6.20;;;2.50;;
55114;SDS011;41010;53.252;5.786;2023-06-04T04:14:05;6.18;;;2.22;;
55114;SDS011;41010;53.252;5.786;2023-06-04T04:16:32;7.38;;;2.63;;
55114;SDS011;41010;53.252;5.786;2023-06-04T04:19:01;4.38;;;2.20;;
55114;SDS011;41010;53.252;5.786;2023-06-04T04:21:28;7.07;;;2.60;;
55114;SDS011;41010;53.252;5.786;2023-06-04T04:23:55;4.25;;;2.35;;
55114;SDS011;41010;53.252;5.786;2023-06-04T04:26:22;5.60;;;2.45;;
55114;SDS011;41010;53.252;5.786;2023-06-04T04:28:52;5.75;;;2.60;;
55114;SDS011;41010;53.252;5.786;2023-06-04T04:31:23;5.65;;;2.40;;
55114;SDS011;41010;53.252;5.786;2023-06-04T04:33:50;7.25;;;2.58;;
55114;SDS011;41010;53.252;5.786;2023-06-04T04:36:19;4.95;;;2.80;;
55114;SDS011;41010;53.252;5.786;2023-06-04T04:38:46;6.50;;;2.58;;
55114;SDS011;41010;53.252;5.786;2023-06-04T04:41:19;5.75;;;2.65;;
55114;SDS011;41010;53.252;5.786;2023-06-04T04:43:47;5.97;;;2.47;;
55114;SDS011;41010;53.252;5.786;2023-06-04T04:46:15;4.78;;;2.42;;
55114;SDS011;41010;53.252;5.786;2023-06-04T04:48:42;6.13;;;2.63;;
55114;SDS011;41010;53.252;5.786;2023-06-04T04:51:09;7.95;;;2.70;;
55114;SDS011;41010;53.252;5.786;2023-06-04T04:53:38;4.50;;;2.42;;
55114;SDS011;41010;53.252;5.786;2023-06-04T04:56:05;4.03;;;2.65;;
55114;SDS011;41010;53.252;5.786;2023-06-04T04:58:32;5.70;;;2.53;;
55114;SDS011;41010;53.252;5.786;2023-06-04T05:00:59;4.35;;;2.42;;
55114;SDS011;41010;53.252;5.786;2023-06-04T05:03:26;4.38;;;2.15;;
55114;SDS011;41010;53.252;5.786;2023-06-04T05:05:54;4.35;;;2.20;;
55114;SDS011;41010;53.252;5.786;2023-06-04T05:08:21;5.80;;;2.38;;
55114;SDS011;41010;53.252;5.786;2023-06-04T05:10:50;7.65;;;1.98;;
55114;SDS011;41010;53.252;5.786;2023-06-04T05:13:17;4.28;;;2.17;;
55114;SDS011;41010;53.252;5.786;2023-06-04T05:15:45;3.00;;;2.00;;
55114;SDS011;41010;53.252;5.786;2023-06-04T05:18:13;3.38;;;2.00;;
55114;SDS011;41010;53.252;5.786;2023-06-04T05:20:41;4.80;;;2.17;;
55114;SDS011;41010;53.252;5.786;2023-06-04T05:23:09;4.10;;;2.40;;
55114;SDS011;41010;53.252;5.786;2023-06-04T05:25:37;4.43;;;2.40;;
55114;SDS011;41010;53.252;5.786;2023-06-04T05:28:07;4.05;;;2.35;;
55114;SDS011;41010;53.252;5.786;2023-06-04T05:30:34;4.18;;;2.05;;
55114;SDS011;41010;53.252;5.786;2023-06-04T05:33:06;4.28;;;1.73;;
55114;SDS011;41010;53.252;5.786;2023-06-04T05:35:42;4.80;;;2.03;;
55114;SDS011;41010;53.252;5.786;2023-06-04T05:38:10;2.88;;;1.80;;
55114;SDS011;41010;53.252;5.786;2023-06-04T05:40:43;6.20;;;2.25;;
55114;SDS011;41010;53.252;5.786;2023-06-04T05:43:12;7.22;;;2.38;;
55114;SDS011;41010;53.252;5.786;2023-06-04T05:45:39;6.90;;;2.38;;
55114;SDS011;41010;53.252;5.786;2023-06-04T05:48:06;4.93;;;2.30;;
55114;SDS011;41010;53.252;5.786;2023-06-04T05:50:34;6.95;;;2.72;;
55114;SDS011;41010;53.252;5.786;2023-06-04T05:53:01;5.72;;;2.25;;
55114;SDS011;41010;53.252;5.786;2023-06-04T05:55:28;7.78;;;2.42;;
55114;SDS011;41010;53.252;5.786;2023-06-04T05:57:55;5.13;;;2.40;;
55114;SDS011;41010;53.252;5.786;2023-06-04T06:00:24;7.75;;;2.30;;
55114;SDS011;41010;53.252;5.786;2023-06-04T06:02:51;4.75;;;1.92;;
55114;SDS011;41010;53.252;5.786;2023-06-04T06:05:19;3.80;;;1.77;;
55114;SDS011;41010;53.252;5.786;2023-06-04T06:07:46;2.50;;;1.60;;
55114;SDS011;41010;53.252;5.786;2023-06-04T06:10:13;6.30;;;2.20;;
55114;SDS011;41010;53.252;5.786;2023-06-04T06:12:41;5.20;;;1.80;;
55114;SDS011;41010;53.252;5.786;2023-06-04T06:15:09;8.90;;;2.05;;
55114;SDS011;41010;53.252;5.786;2023-06-04T06:17:39;5.97;;;1.88;;
55114;SDS011;41010;53.252;5.786;2023-06-04T06:20:06;3.38;;;1.55;;
55114;SDS011;41010;53.252;5.786;2023-06-04T06:22:33;6.35;;;1.80;;
55114;SDS011;41010;53.252;5.786;2023-06-04T06:25:01;4.57;;;1.80;;
55114;SDS011;41010;53.252;5.786;2023-06-04T06:27:30;6.25;;;2.00;;
55114;SDS011;41010;53.252;5.786;2023-06-04T06:29:57;4.55;;;1.77;;
55114;SDS011;41010;53.252;5.786;2023-06-04T06:32:25;5.63;;;1.60;;
55114;SDS011;41010;53.252;5.786;2023-06-04T06:34:53;6.43;;;1.50;;
55114;SDS011;41010;53.252;5.786;2023-06-04T06:37:21;4.32;;;1.02;;
55114;SDS011;41010;53.252;5.786;2023-06-04T06:39:48;5.00;;;1.50;;
55114;SDS011;41010;53.252;5.786;2023-06-04T06:42:15;2.75;;;1.30;;
55114;SDS011;41010;53.252;5.786;2023-06-04T06:44:43;3.05;;;1.33;;
55114;SDS011;41010;53.252;5.786;2023-06-04T06:47:11;2.95;;;1.30;;
55114;SDS011;41010;53.252;5.786;2023-06-04T06:49:39;3.67;;;1.60;;
55114;SDS011;41010;53.252;5.786;2023-06-04T06:52:08;2.88;;;0.93;;
55114;SDS011;41010;53.252;5.786;2023-06-04T06:54:35;2.83;;;1.20;;
55114;SDS011;41010;53.252;5.786;2023-06-04T06:57:02;3.65;;;0.95;;
55114;SDS011;41010;53.252;5.786;2023-06-04T06:59:33;2.33;;;1.00;;
55114;SDS011;41010;53.252;5.786;2023-06-04T07:02:01;4.40;;;1.30;;
55114;SDS011;41010;53.252;5.786;2023-06-04T07:04:28;2.75;;;0.95;;
55114;SDS011;41010;53.252;5.786;2023-06-04T07:06:55;4.07;;;1.17;;
55114;SDS011;41010;53.252;5.786;2023-06-04T07:09:25;3.05;;;1.10;;
55114;SDS011;41010;53.252;5.786;2023-06-04T07:11:52;8.93;;;1.33;;
55114;SDS011;41010;53.252;5.786;2023-06-04T07:14:20;3.10;;;1.35;;
55114;SDS011;41010;53.252;5.786;2023-06-04T07:16:47;5.07;;;1.33;;
55114;SDS011;41010;53.252;5.786;2023-06-04T07:19:14;3.55;;;1.27;;
55114;SDS011;41010;53.252;5.786;2023-06-04T07:21:41;3.80;;;1.13;;
55114;SDS011;41010;53.252;5.786;2023-06-04T07:24:09;5.07;;;1.30;;
55114;SDS011;41010;53.252;5.786;2023-06-04T07:26:37;2.22;;;1.15;;
55114;SDS011;41010;53.252;5.786;2023-06-04T07:29:04;3.53;;;1.30;;
55114;SDS011;41010;53.252;5.786;2023-06-04T07:31:32;6.20;;;1.33;;
55114;SDS011;41010;53.252;5.786;2023-06-04T07:33:59;4.25;;;1.50;;
55114;SDS011;41010;53.252;5.786;2023-06-04T07:36:26;5.03;;;1.95;;
55114;SDS011;41010;53.252;5.786;2023-06-04T07:38:54;3.08;;;1.35;;
55114;SDS011;41010;53.252;5.786;2023-06-04T07:41:21;3.63;;;1.48;;
55114;SDS011;41010;53.252;5.786;2023-06-04T07:43:49;4.40;;;1.15;;
55114;SDS011;41010;53.252;5.786;2023-06-04T07:46:17;2.55;;;1.15;;
55114;SDS011;41010;53.252;5.786;2023-06-04T07:48:44;3.17;;;1.33;;
55114;SDS011;41010;53.252;5.786;2023-06-04T07:51:12;2.33;;;1.20;;
55114;SDS011;41010;53.252;5.786;2023-06-04T07:53:39;2.92;;;1.23;;
55114;SDS011;41010;53.252;5.786;2023-06-04T07:56:07;2.10;;;1.00;;
55114;SDS011;41010;53.252;5.786;2023-06-04T07:58:34;2.35;;;1.10;;
55114;SDS011;41010;53.252;5.786;2023-06-04T08:01:03;3.13;;;1.20;;
55114;SDS011;41010;53.252;5.786;2023-06-04T08:03:30;4.80;;;1.30;;
55114;SDS011;41010;53.252;5.786;2023-06-04T08:05:58;5.00;;;1.17;;
55114;SDS011;41010;53.252;5.786;2023-06-04T08:08:25;4.22;;;1.20;;
55114;SDS011;41010;53.252;5.786;2023-06-04T08:10:52;1.90;;;1.10;;
55114;SDS011;41010;53.252;5.786;2023-06-04T08:13:19;2.85;;;1.30;;
55114;SDS011;41010;53.252;5.786;2023-06-04T08:15:47;4.18;;;1.10;;
55114;SDS011;41010;53.252;5.786;2023-06-04T08:18:15;6.13;;;1.35;;
55114;SDS011;41010;53.252;5.786;2023-06-04T08:20:43;4.18;;;1.38;;
55114;SDS011;41010;53.252;5.786;2023-06-04T08:23:10;4.32;;;1.15;;
55114;SDS011;41010;53.252;5.786;2023-06-04T08:25:37;1.95;;;1.13;;
55114;SDS011;41010;53.252;5.786;2023-06-04T08:28:04;3.28;;;1.27;;
55114;SDS011;41010;53.252;5.786;2023-06-04T08:30:32;2.42;;;0.80;;
55114;SDS011;41010;53.252;5.786;2023-06-04T08:33:01;4.13;;;1.17;;
55114;SDS011;41010;53.252;5.786;2023-06-04T08:35:29;5.72;;;1.23;;
55114;SDS011;41010;53.252;5.786;2023-06-04T08:37:57;2.88;;;1.10;;
55114;SDS011;41010;53.252;5.786;2023-06-04T08:40:24;8.80;;;1.20;;
55114;SDS011;41010;53.252;5.786;2023-06-04T08:42:52;4.55;;;1.20;;
55114;SDS011;41010;53.252;5.786;2023-06-04T08:45:23;4.60;;;1.10;;
55114;SDS011;41010;53.252;5.786;2023-06-04T08:47:50;1.85;;;0.80;;
55114;SDS011;41010;53.252;5.786;2023-06-04T08:50:19;2.45;;;0.95;;
55114;SDS011;41010;53.252;5.786;2023-06-04T08:52:49;1.83;;;0.90;;
55114;SDS011;41010;53.252;5.786;2023-06-04T08:55:18;4.25;;;1.05;;
55114;SDS011;41010;53.252;5.786;2023-06-04T08:57:45;3.45;;;0.98;;
55114;SDS011;41010;53.252;5.786;2023-06-04T09:00:14;3.15;;;0.90;;
55114;SDS011;41010;53.252;5.786;2023-06-04T09:02:41;1.90;;;0.75;;
55114;SDS011;41010;53.252;5.786;2023-06-04T09:05:09;1.95;;;0.85;;
55114;SDS011;41010;53.252;5.786;2023-06-04T09:07:38;2.45;;;0.80;;
55114;SDS011;41010;53.252;5.786;2023-06-04T09:10:08;3.30;;;1.00;;
55114;SDS011;41010;53.252;5.786;2023-06-04T09:12:38;2.33;;;1.05;;
55114;SDS011;41010;53.252;5.786;2023-06-04T09:15:09;4.00;;;1.10;;
55114;SDS011;41010;53.252;5.786;2023-06-04T09:17:37;3.83;;;1.10;;
55114;SDS011;41010;53.252;5.786;2023-06-04T09:20:04;2.03;;;1.10;;
55114;SDS011;41010;53.252;5.786;2023-06-04T09:22:33;5.30;;;1.17;;
55114;SDS011;41010;53.252;5.786;2023-06-04T09:25:03;2.20;;;0.95;;
55114;SDS011;41010;53.252;5.786;2023-06-04T09:27:38;3.83;;;1.08;;
55114;SDS011;41010;53.252;5.786;2023-06-04T09:30:06;1.95;;;0.93;;
55114;SDS011;41010;53.252;5.786;2023-06-04T09:32:34;3.08;;;1.17;;
55114;SDS011;41010;53.252;5.786;2023-06-04T09:35:08;1.48;;;1.00;;
55114;SDS011;41010;53.252;5.786;2023-06-04T09:37:36;3.00;;;1.00;;
55114;SDS011;41010;53.252;5.786;2023-06-04T09:40:04;2.33;;;0.95;;
55114;SDS011;41010;53.252;5.786;2023-06-04T09:42:42;1.40;;;0.93;;
55114;SDS011;41010;53.252;5.786;2023-06-04T09:45:09;2.00;;;1.00;;
55114;SDS011;41010;53.252;5.786;2023-06-04T09:47:41;2.65;;;1.13;;
55114;SDS011;41010;53.252;5.786;2023-06-04T09:50:09;4.05;;;1.50;;
55114;SDS011;41010;53.252;5.786;2023-06-04T09:52:37;3.83;;;1.35;;
55114;SDS011;41010;53.252;5.786;2023-06-04T09:55:14;3.65;;;1.25;;
55114;SDS011;41010;53.252;5.786;2023-06-04T09:57:45;4.57;;;1.08;;
55114;SDS011;41010;53.252;5.786;2023-06-04T10:00:14;4.63;;;1.30;;
55114;SDS011;41010;53.252;5.786;2023-06-04T10:02:43;2.38;;;1.13;;
55114;SDS011;41010;53.252;5.786;2023-06-04T10:05:11;5.07;;;1.20;;
55114;SDS011;41010;53.252;5.786;2023-06-04T10:07:39;2.47;;;1.10;;
55114;SDS011;41010;53.252;5.786;2023-06-04T10:10:07;2.55;;;1.40;;
55114;SDS011;41010;53.252;5.786;2023-06-04T10:12:35;3.15;;;0.98;;
55114;SDS011;41010;53.252;5.786;2023-06-04T10:15:07;2.25;;;1.27;;
55114;SDS011;41010;53.252;5.786;2023-06-04T10:17:37;2.72;;;1.13;;
55114;SDS011;41010;53.252;5.786;2023-06-04T10:20:05;5.13;;;1.35;;
55114;SDS011;41010;53.252;5.786;2023-06-04T10:22:35;2.20;;;1.10;;
55114;SDS011;41010;53.252;5.786;2023-06-04T10:25:03;2.13;;;1.30;;
55114;SDS011;41010;53.252;5.786;2023-06-04T10:27:30;1.73;;;1.33;;
55114;SDS011;41010;53.252;5.786;2023-06-04T10:30:00;3.97;;;1.30;;
55114;SDS011;41010;53.252;5.786;2023-06-04T10:32:29;1.80;;;1.20;;
55114;SDS011;41010;53.252;5.786;2023-06-04T10:34:57;3.15;;;1.23;;
55114;SDS011;41010;53.252;5.786;2023-06-04T10:37:24;3.75;;;1.20;;
55114;SDS011;41010;53.252;5.786;2023-06-04T10:39:55;2.63;;;1.23;;
55114;SDS011;41010;53.252;5.786;2023-06-04T10:42:22;3.03;;;1.55;;
55114;SDS011;41010;53.252;5.786;2023-06-04T10:44:50;1.63;;;1.00;;
55114;SDS011;41010;53.252;5.786;2023-06-04T10:47:18;2.33;;;1.00;;
55114;SDS011;41010;53.252;5.786;2023-06-04T10:49:47;3.03;;;1.40;;
55114;SDS011;41010;53.252;5.786;2023-06-04T10:52:14;1.38;;;1.02;;
55114;SDS011;41010;53.252;5.786;2023-06-04T10:54:41;2.20;;;1.10;;
55114;SDS011;41010;53.252;5.786;2023-06-04T10:57:10;2.80;;;1.38;;
55114;SDS011;41010;53.252;5.786;2023-06-04T10:59:37;2.92;;;1.38;;
55114;SDS011;41010;53.252;5.786;2023-06-04T11:02:05;1.42;;;1.02;;
55114;SDS011;41010;53.252;5.786;2023-06-04T11:04:32;6.07;;;1.52;;
55114;SDS011;41010;53.252;5.786;2023-06-04T11:07:01;2.80;;;1.02;;
55114;SDS011;41010;53.252;5.786;2023-06-04T11:09:29;2.67;;;1.10;;
55114;SDS011;41010;53.252;5.786;2023-06-04T11:11:57;2.25;;;1.30;;
55114;SDS011;41010;53.252;5.786;2023-06-04T11:14:24;2.13;;;1.10;;
55114;SDS011;41010;53.252;5.786;2023-06-04T11:16:52;1.77;;;1.08;;
55114;SDS011;41010;53.252;5.786;2023-06-04T11:19:19;3.28;;;1.60;;
55114;SDS011;41010;53.252;5.786;2023-06-04T11:21:47;3.55;;;1.35;;
55114;SDS011;41010;53.252;5.786;2023-06-04T11:24:15;1.92;;;1.02;;
55114;SDS011;41010;53.252;5.786;2023-06-04T11:26:43;4.75;;;1.25;;
55114;SDS011;41010;53.252;5.786;2023-06-04T11:29:11;2.65;;;1.20;;
55114;SDS011;41010;53.252;5.786;2023-06-04T11:31:41;2.10;;;1.02;;
55114;SDS011;41010;53.252;5.786;2023-06-04T11:34:08;2.90;;;1.00;;
55114;SDS011;41010;53.252;5.786;2023-06-04T11:36:37;4.05;;;1.30;;
55114;SDS011;41010;53.252;5.786;2023-06-04T11:39:04;1.80;;;1.13;;
55114;SDS011;41010;53.252;5.786;2023-06-04T11:41:34;1.73;;;1.05;;
55114;SDS011;41010;53.252;5.786;2023-06-04T11:44:02;4.72;;;1.00;;
55114;SDS011;41010;53.252;5.786;2023-06-04T11:46:30;3.00;;;1.20;;
55114;SDS011;41010;53.252;5.786;2023-06-04T11:48:57;2.90;;;1.13;;
55114;SDS011;41010;53.252;5.786;2023-06-04T11:51:25;2.53;;;1.13;;
55114;SDS011;41010;53.252;5.786;2023-06-04T11:53:53;1.75;;;1.20;;
55114;SDS011;41010;53.252;5.786;2023-06-04T11:56:21;5.13;;;1.23;;
55114;SDS011;41010;53.252;5.786;2023-06-04T11:58:50;1.42;;;0.95;;
55114;SDS011;41010;53.252;5.786;2023-06-04T12:01:17;2.92;;;1.15;;
55114;SDS011;41010;53.252;5.786;2023-06-04T12:03:44;1.10;;;0.98;;
55114;SDS011;41010;53.252;5.786;2023-06-04T12:06:12;2.83;;;1.30;;
55114;SDS011;41010;53.252;5.786;2023-06-04T12:08:47;2.13;;;1.30;;
55114;SDS011;41010;53.252;5.786;2023-06-04T12:11:24;2.20;;;1.30;;
55114;SDS011;41010;53.252;5.786;2023-06-04T12:13:54;2.38;;;1.20;;
55114;SDS011;41010;53.252;5.786;2023-06-04T12:16:22;2.85;;;1.15;;
55114;SDS011;41010;53.252;5.786;2023-06-04T12:18:49;2.33;;;1.35;;
55114;SDS011;41010;53.252;5.786;2023-06-04T12:21:21;1.90;;;1.20;;
55114;SDS011;41010;53.252;5.786;2023-06-04T12:23:52;2.22;;;1.23;;
55114;SDS011;41010;53.252;5.786;2023-06-04T12:26:20;2.08;;;1.00;;
55114;SDS011;41010;53.252;5.786;2023-06-04T12:29:01;1.95;;;1.33;;
55114;SDS011;41010;53.252;5.786;2023-06-04T12:31:29;2.58;;;1.27;;
55114;SDS011;41010;53.252;5.786;2023-06-04T12:33:58;2.50;;;1.20;;
55114;SDS011;41010;53.252;5.786;2023-06-04T12:36:25;2.67;;;1.50;;
55114;SDS011;41010;53.252;5.786;2023-06-04T12:38:53;2.55;;;1.58;;
55114;SDS011;41010;53.252;5.786;2023-06-04T12:41:20;2.90;;;1.60;;
55114;SDS011;41010;53.252;5.786;2023-06-04T12:43:48;1.33;;;1.17;;
55114;SDS011;41010;53.252;5.786;2023-06-04T12:46:16;1.67;;;1.02;;
55114;SDS011;41010;53.252;5.786;2023-06-04T12:48:44;2.88;;;1.45;;
55114;SDS011;41010;53.252;5.786;2023-06-04T12:51:11;1.40;;;1.10;;
55114;SDS011;41010;53.252;5.786;2023-06-04T12:53:38;3.50;;;1.42;;
55114;SDS011;41010;53.252;5.786;2023-06-04T12:56:05;4.20;;;1.40;;
55114;SDS011;41010;53.252;5.786;2023-06-04T12:58:33;1.65;;;1.20;;
55114;SDS011;41010;53.252;5.786;2023-06-04T13:01:00;2.72;;;1.25;;
55114;SDS011;41010;53.252;5.786;2023-06-04T13:03:29;1.38;;;1.10;;
55114;SDS011;41010;53.252;5.786;2023-06-04T13:05:56;3.22;;;1.35;;
55114;SDS011;41010;53.252;5.786;2023-06-04T13:08:24;1.80;;;1.30;;
55114;SDS011;41010;53.252;5.786;2023-06-04T13:10:51;2.90;;;1.40;;
55114;SDS011;41010;53.252;5.786;2023-06-04T13:13:19;2.65;;;1.50;;
55114;SDS011;41010;53.252;5.786;2023-06-04T13:15:46;2.45;;;1.40;;
55114;SDS011;41010;53.252;5.786;2023-06-04T13:18:13;2.55;;;1.30;;
55114;SDS011;41010;53.252;5.786;2023-06-04T13:20:42;2.08;;;1.02;;
55114;SDS011;41010;53.252;5.786;2023-06-04T13:23:09;2.30;;;1.30;;
55114;SDS011;41010;53.252;5.786;2023-06-04T13:25:37;2.00;;;1.30;;
55114;SDS011;41010;53.252;5.786;2023-06-04T13:28:05;2.08;;;1.30;;
55114;SDS011;41010;53.252;5.786;2023-06-04T13:30:33;2.70;;;1.17;;
55114;SDS011;41010;53.252;5.786;2023-06-04T13:33:01;2.00;;;1.30;;
55114;SDS011;41010;53.252;5.786;2023-06-04T13:35:29;2.40;;;1.50;;
55114;SDS011;41010;53.252;5.786;2023-06-04T13:37:57;3.10;;;1.63;;
55114;SDS011;41010;53.252;5.786;2023-06-04T13:40:25;2.95;;;1.30;;
55114;SDS011;41010;53.252;5.786;2023-06-04T13:42:52;3.08;;;1.40;;
55114;SDS011;41010;53.252;5.786;2023-06-04T13:45:19;2.45;;;1.20;;
55114;SDS011;41010;53.252;5.786;2023-06-04T13:47:46;2.38;;;1.35;;
55114;SDS011;41010;53.252;5.786;2023-06-04T13:50:14;3.55;;;1.30;;
55114;SDS011;41010;53.252;5.786;2023-06-04T13:52:41;4.43;;;1.35;;
55114;SDS011;41010;53.252;5.786;2023-06-04T13:55:11;2.72;;;1.50;;
55114;SDS011;41010;53.252;5.786;2023-06-04T13:57:39;4.10;;;2.15;;
55114;SDS011;41010;53.252;5.786;2023-06-04T14:00:06;1.75;;;1.50;;
55114;SDS011;41010;53.252;5.786;2023-06-04T14:02:34;2.03;;;1.65;;
55114;SDS011;41010;53.252;5.786;2023-06-04T14:05:02;1.85;;;1.30;;
55114;SDS011;41010;53.252;5.786;2023-06-04T14:07:29;2.83;;;1.80;;
55114;SDS011;41010;53.252;5.786;2023-06-04T14:09:57;2.95;;;1.98;;
55114;SDS011;41010;53.252;5.786;2023-06-04T14:12:25;4.38;;;1.80;;
55114;SDS011;41010;53.252;5.786;2023-06-04T14:14:52;1.73;;;1.38;;
55114;SDS011;41010;53.252;5.786;2023-06-04T14:17:20;2.65;;;1.70;;
55114;SDS011;41010;53.252;5.786;2023-06-04T14:19:47;1.90;;;1.58;;
55114;SDS011;41010;53.252;5.786;2023-06-04T14:22:14;1.58;;;1.33;;
55114;SDS011;41010;53.252;5.786;2023-06-04T14:24:41;1.73;;;1.63;;
55114;SDS011;41010;53.252;5.786;2023-06-04T14:27:09;1.98;;;1.60;;
55114;SDS011;41010;53.252;5.786;2023-06-04T14:29:37;1.98;;;1.40;;
55114;SDS011;41010;53.252;5.786;2023-06-04T14:32:05;3.17;;;1.75;;
55114;SDS011;41010;53.252;5.786;2023-06-04T14:34:32;2.95;;;1.70;;
55114;SDS011;41010;53.252;5.786;2023-06-04T14:37:00;7.50;;;1.70;;
55114;SDS011;41010;53.252;5.786;2023-06-04T14:39:27;1.95;;;1.58;;
55114;SDS011;41010;53.252;5.786;2023-06-04T14:41:54;3.13;;;1.95;;
55114;SDS011;41010;53.252;5.786;2023-06-04T14:44:21;2.20;;;1.52;;
55114;SDS011;41010;53.252;5.786;2023-06-04T14:46:50;3.05;;;1.63;;
55114;SDS011;41010;53.252;5.786;2023-06-04T14:49:17;2.15;;;1.73;;
55114;SDS011;41010;53.252;5.786;2023-06-04T14:51:45;2.88;;;1.70;;
55114;SDS011;41010;53.252;5.786;2023-06-04T14:54:12;4.22;;;1.77;;